sensor_id;sensor_type;location;lat;lon;timestamp;P1;durP1;ratioP1;P2;durP2;ratioP2
76194;SDS011;64964;48.694;21.206;2023-09-19T00:00:59;7.93;;;5.33;;
76194;SDS011;64964;48.694;21.206;2023-09-19T00:03:24;7.00;;;5.32;;
76194;SDS011;64964;48.694;21.206;2023-09-19T00:05:53;9.23;;;4.87;;
76194;SDS011;64964;48.694;21.206;2023-09-19T00:08:20;10.55;;;5.38;;
76194;SDS011;64964;48.694;21.206;2023-09-19T00:10:49;8.27;;;5.45;;
76194;SDS011;64964;48.694;21.206;2023-09-19T00:13:15;7.40;;;4.72;;
76194;SDS011;64964;48.694;21.206;2023-09-19T00:15:42;10.97;;;6.50;;
76194;SDS011;64964;48.694;21.206;2023-09-19T00:18:14;10.20;;;5.57;;
76194;SDS011;64964;48.694;21.206;2023-09-19T00:20:40;7.97;;;6.00;;
76194;SDS011;64964;48.694;21.206;2023-09-19T00:23:07;8.98;;;5.15;;
76194;SDS011;64964;48.694;21.206;2023-09-19T00:25:35;12.98;;;6.57;;
76194;SDS011;64964;48.694;21.206;2023-09-19T00:28:02;11.85;;;6.70;;
76194;SDS011;64964;48.694;21.206;2023-09-19T00:30:29;12.15;;;7.18;;
76194;SDS011;64964;48.694;21.206;2023-09-19T00:32:55;13.13;;;7.23;;
76194;SDS011;64964;48.694;21.206;2023-09-19T00:35:20;11.20;;;6.93;;
76194;SDS011;64964;48.694;21.206;2023-09-19T00:37:50;11.32;;;6.88;;
76194;SDS011;64964;48.694;21.206;2023-09-19T00:40:16;11.40;;;7.13;;
76194;SDS011;64964;48.694;21.206;2023-09-19T00:42:42;14.47;;;6.77;;
76194;SDS011;64964;48.694;21.206;2023-09-19T00:45:09;12.65;;;6.65;;
76194;SDS011;64964;48.694;21.206;2023-09-19T00:47:37;9.77;;;6.10;;
76194;SDS011;64964;48.694;21.206;2023-09-19T00:50:04;13.15;;;6.53;;
76194;SDS011;64964;48.694;21.206;2023-09-19T00:52:32;10.57;;;6.13;;
76194;SDS011;64964;48.694;21.206;2023-09-19T00:55:05;14.40;;;7.13;;
76194;SDS011;64964;48.694;21.206;2023-09-19T00:57:32;17.88;;;9.35;;
76194;SDS011;64964;48.694;21.206;2023-09-19T00:59:59;16.65;;;8.55;;
76194;SDS011;64964;48.694;21.206;2023-09-19T01:02:25;10.88;;;7.10;;
76194;SDS011;64964;48.694;21.206;2023-09-19T01:04:54;15.33;;;8.13;;
76194;SDS011;64964;48.694;21.206;2023-09-19T01:07:20;13.00;;;7.33;;
76194;SDS011;64964;48.694;21.206;2023-09-19T01:09:47;12.88;;;6.65;;
76194;SDS011;64964;48.694;21.206;2023-09-19T01:12:13;13.73;;;7.27;;
76194;SDS011;64964;48.694;21.206;2023-09-19T01:14:55;14.00;;;7.43;;
76194;SDS011;64964;48.694;21.206;2023-09-19T01:17:29;14.25;;;7.50;;
76194;SDS011;64964;48.694;21.206;2023-09-19T01:22:43;12.95;;;7.50;;
76194;SDS011;64964;48.694;21.206;2023-09-19T01:30:56;13.77;;;7.90;;
76194;SDS011;64964;48.694;21.206;2023-09-19T01:33:24;14.60;;;7.95;;
76194;SDS011;64964;48.694;21.206;2023-09-19T01:35:50;15.38;;;8.20;;
76194;SDS011;64964;48.694;21.206;2023-09-19T01:38:17;13.83;;;8.20;;
76194;SDS011;64964;48.694;21.206;2023-09-19T01:40:46;17.30;;;7.72;;
76194;SDS011;64964;48.694;21.206;2023-09-19T01:43:26;18.02;;;8.93;;
76194;SDS011;64964;48.694;21.206;2023-09-19T01:51:10;14.87;;;7.63;;
76194;SDS011;64964;48.694;21.206;2023-09-19T01:53:48;16.60;;;8.52;;
76194;SDS011;64964;48.694;21.206;2023-09-19T01:56:25;15.23;;;7.68;;
76194;SDS011;64964;48.694;21.206;2023-09-19T01:58:59;12.73;;;7.68;;
76194;SDS011;64964;48.694;21.206;2023-09-19T02:01:31;16.23;;;8.15;;
76194;SDS011;64964;48.694;21.206;2023-09-19T02:03:56;12.80;;;7.90;;
76194;SDS011;64964;48.694;21.206;2023-09-19T02:06:23;12.18;;;7.45;;
76194;SDS011;64964;48.694;21.206;2023-09-19T02:08:49;11.65;;;6.95;;
76194;SDS011;64964;48.694;21.206;2023-09-19T02:11:15;13.03;;;7.30;;
76194;SDS011;64964;48.694;21.206;2023-09-19T02:13:41;13.95;;;8.07;;
76194;SDS011;64964;48.694;21.206;2023-09-19T02:16:06;11.47;;;7.73;;
76194;SDS011;64964;48.694;21.206;2023-09-19T02:18:34;12.98;;;8.10;;
76194;SDS011;64964;48.694;21.206;2023-09-19T02:21:00;14.23;;;8.38;;
76194;SDS011;64964;48.694;21.206;2023-09-19T02:23:26;12.70;;;8.07;;
76194;SDS011;64964;48.694;21.206;2023-09-19T02:25:53;14.73;;;8.68;;
76194;SDS011;64964;48.694;21.206;2023-09-19T02:28:19;12.13;;;9.02;;
76194;SDS011;64964;48.694;21.206;2023-09-19T02:30:47;12.93;;;8.73;;
76194;SDS011;64964;48.694;21.206;2023-09-19T02:33:14;13.93;;;8.57;;
76194;SDS011;64964;48.694;21.206;2023-09-19T02:35:39;12.87;;;8.40;;
76194;SDS011;64964;48.694;21.206;2023-09-19T02:38:05;16.03;;;10.03;;
76194;SDS011;64964;48.694;21.206;2023-09-19T02:40:32;16.10;;;9.40;;
76194;SDS011;64964;48.694;21.206;2023-09-19T02:43:00;18.83;;;10.10;;
76194;SDS011;64964;48.694;21.206;2023-09-19T02:45:27;17.30;;;10.13;;
76194;SDS011;64964;48.694;21.206;2023-09-19T02:47:52;17.55;;;10.80;;
76194;SDS011;64964;48.694;21.206;2023-09-19T02:50:19;17.65;;;10.65;;
76194;SDS011;64964;48.694;21.206;2023-09-19T02:52:45;19.97;;;11.00;;
76194;SDS011;64964;48.694;21.206;2023-09-19T02:55:15;15.23;;;10.80;;
76194;SDS011;64964;48.694;21.206;2023-09-19T02:57:46;13.75;;;9.30;;
76194;SDS011;64964;48.694;21.206;2023-09-19T03:00:15;11.75;;;7.82;;
76194;SDS011;64964;48.694;21.206;2023-09-19T03:02:42;13.63;;;8.73;;
76194;SDS011;64964;48.694;21.206;2023-09-19T03:05:09;16.38;;;9.23;;
76194;SDS011;64964;48.694;21.206;2023-09-19T03:07:36;12.13;;;8.77;;
76194;SDS011;64964;48.694;21.206;2023-09-19T03:10:03;12.32;;;8.30;;
76194;SDS011;64964;48.694;21.206;2023-09-19T03:12:30;13.50;;;7.97;;
76194;SDS011;64964;48.694;21.206;2023-09-19T03:14:57;11.13;;;7.87;;
76194;SDS011;64964;48.694;21.206;2023-09-19T03:17:22;13.40;;;8.52;;
76194;SDS011;64964;48.694;21.206;2023-09-19T03:19:47;10.70;;;8.00;;
76194;SDS011;64964;48.694;21.206;2023-09-19T03:22:13;11.97;;;7.07;;
76194;SDS011;64964;48.694;21.206;2023-09-19T03:24:39;8.77;;;6.07;;
76194;SDS011;64964;48.694;21.206;2023-09-19T03:27:05;10.00;;;7.37;;
76194;SDS011;64964;48.694;21.206;2023-09-19T03:29:30;11.07;;;8.00;;
76194;SDS011;64964;48.694;21.206;2023-09-19T03:31:56;10.13;;;7.67;;
76194;SDS011;64964;48.694;21.206;2023-09-19T03:34:21;13.23;;;7.57;;
76194;SDS011;64964;48.694;21.206;2023-09-19T03:36:46;13.93;;;8.40;;
76194;SDS011;64964;48.694;21.206;2023-09-19T03:39:12;11.50;;;8.60;;
76194;SDS011;64964;48.694;21.206;2023-09-19T03:41:39;13.45;;;8.05;;
76194;SDS011;64964;48.694;21.206;2023-09-19T03:44:05;11.90;;;8.10;;
76194;SDS011;64964;48.694;21.206;2023-09-19T03:46:30;10.55;;;8.23;;
76194;SDS011;64964;48.694;21.206;2023-09-19T03:48:57;11.85;;;8.90;;
76194;SDS011;64964;48.694;21.206;2023-09-19T03:51:22;13.93;;;9.07;;
76194;SDS011;64964;48.694;21.206;2023-09-19T03:53:47;14.20;;;9.30;;
76194;SDS011;64964;48.694;21.206;2023-09-19T03:56:15;12.18;;;9.10;;
76194;SDS011;64964;48.694;21.206;2023-09-19T03:58:40;17.07;;;10.50;;
76194;SDS011;64964;48.694;21.206;2023-09-19T04:01:06;15.47;;;10.70;;
76194;SDS011;64964;48.694;21.206;2023-09-19T04:03:34;19.33;;;11.55;;
76194;SDS011;64964;48.694;21.206;2023-09-19T04:06:10;21.65;;;11.93;;
76194;SDS011;64964;48.694;21.206;2023-09-19T04:08:36;21.57;;;12.47;;
76194;SDS011;64964;48.694;21.206;2023-09-19T04:11:01;18.50;;;10.15;;
76194;SDS011;64964;48.694;21.206;2023-09-19T04:13:26;24.93;;;12.43;;
76194;SDS011;64964;48.694;21.206;2023-09-19T04:15:52;20.57;;;11.30;;
76194;SDS011;64964;48.694;21.206;2023-09-19T04:18:17;22.10;;;11.20;;
76194;SDS011;64964;48.694;21.206;2023-09-19T04:20:47;22.95;;;11.15;;
76194;SDS011;64964;48.694;21.206;2023-09-19T04:23:13;20.33;;;11.73;;
76194;SDS011;64964;48.694;21.206;2023-09-19T04:25:40;20.63;;;11.32;;
76194;SDS011;64964;48.694;21.206;2023-09-19T04:28:06;23.17;;;11.67;;
76194;SDS011;64964;48.694;21.206;2023-09-19T04:30:31;18.90;;;11.13;;
76194;SDS011;64964;48.694;21.206;2023-09-19T04:32:56;19.57;;;10.73;;
76194;SDS011;64964;48.694;21.206;2023-09-19T04:35:22;17.73;;;10.63;;
76194;SDS011;64964;48.694;21.206;2023-09-19T04:37:47;18.67;;;11.07;;
76194;SDS011;64964;48.694;21.206;2023-09-19T04:40:13;16.38;;;10.02;;
76194;SDS011;64964;48.694;21.206;2023-09-19T04:42:44;18.48;;;10.80;;
76194;SDS011;64964;48.694;21.206;2023-09-19T04:45:11;17.50;;;10.43;;
76194;SDS011;64964;48.694;21.206;2023-09-19T04:47:36;16.10;;;9.75;;
76194;SDS011;64964;48.694;21.206;2023-09-19T04:50:08;17.88;;;10.90;;
76194;SDS011;64964;48.694;21.206;2023-09-19T04:52:38;16.90;;;10.18;;
76194;SDS011;64964;48.694;21.206;2023-09-19T04:55:15;15.23;;;10.07;;
76194;SDS011;64964;48.694;21.206;2023-09-19T04:57:47;14.45;;;9.75;;
76194;SDS011;64964;48.694;21.206;2023-09-19T05:00:15;16.70;;;9.75;;
76194;SDS011;64964;48.694;21.206;2023-09-19T05:02:45;19.73;;;10.80;;
76194;SDS011;64964;48.694;21.206;2023-09-19T05:05:14;16.65;;;9.30;;
76194;SDS011;64964;48.694;21.206;2023-09-19T05:07:41;16.37;;;9.63;;
76194;SDS011;64964;48.694;21.206;2023-09-19T05:10:07;14.13;;;8.63;;
76194;SDS011;64964;48.694;21.206;2023-09-19T05:12:34;17.23;;;10.25;;
76194;SDS011;64964;48.694;21.206;2023-09-19T05:15:00;16.23;;;9.63;;
76194;SDS011;64964;48.694;21.206;2023-09-19T05:17:33;15.20;;;9.67;;
76194;SDS011;64964;48.694;21.206;2023-09-19T05:19:59;14.03;;;8.90;;
76194;SDS011;64964;48.694;21.206;2023-09-19T05:22:36;14.88;;;8.07;;
76194;SDS011;64964;48.694;21.206;2023-09-19T05:25:04;13.73;;;9.10;;
76194;SDS011;64964;48.694;21.206;2023-09-19T05:27:30;14.20;;;8.77;;
76194;SDS011;64964;48.694;21.206;2023-09-19T05:29:56;15.37;;;9.10;;
76194;SDS011;64964;48.694;21.206;2023-09-19T05:32:21;17.23;;;8.47;;
76194;SDS011;64964;48.694;21.206;2023-09-19T05:34:47;12.93;;;8.05;;
76194;SDS011;64964;48.694;21.206;2023-09-19T05:37:12;11.53;;;7.70;;
76194;SDS011;64964;48.694;21.206;2023-09-19T05:39:41;12.95;;;7.75;;
76194;SDS011;64964;48.694;21.206;2023-09-19T05:42:06;13.43;;;8.30;;
76194;SDS011;64964;48.694;21.206;2023-09-19T05:44:33;11.32;;;8.20;;
76194;SDS011;64964;48.694;21.206;2023-09-19T05:46:58;11.27;;;7.87;;
76194;SDS011;64964;48.694;21.206;2023-09-19T05:49:23;12.52;;;7.63;;
76194;SDS011;64964;48.694;21.206;2023-09-19T05:51:49;11.60;;;8.00;;
76194;SDS011;64964;48.694;21.206;2023-09-19T05:54:19;15.80;;;9.40;;
76194;SDS011;64964;48.694;21.206;2023-09-19T05:56:45;12.50;;;8.02;;
76194;SDS011;64964;48.694;21.206;2023-09-19T05:59:12;15.20;;;8.40;;
76194;SDS011;64964;48.694;21.206;2023-09-19T06:01:40;13.43;;;7.78;;
76194;SDS011;64964;48.694;21.206;2023-09-19T06:04:07;10.07;;;7.87;;
76194;SDS011;64964;48.694;21.206;2023-09-19T06:06:32;11.77;;;7.73;;
76194;SDS011;64964;48.694;21.206;2023-09-19T06:09:04;10.00;;;7.67;;
76194;SDS011;64964;48.694;21.206;2023-09-19T06:11:30;11.80;;;7.82;;
76194;SDS011;64964;48.694;21.206;2023-09-19T06:14:00;12.75;;;8.13;;
76194;SDS011;64964;48.694;21.206;2023-09-19T06:16:27;10.07;;;7.00;;
76194;SDS011;64964;48.694;21.206;2023-09-19T06:18:57;12.00;;;7.60;;
76194;SDS011;64964;48.694;21.206;2023-09-19T06:21:24;10.23;;;7.67;;
76194;SDS011;64964;48.694;21.206;2023-09-19T06:23:51;12.80;;;8.05;;
76194;SDS011;64964;48.694;21.206;2023-09-19T06:26:17;12.60;;;8.20;;
76194;SDS011;64964;48.694;21.206;2023-09-19T06:28:43;10.40;;;7.50;;
76194;SDS011;64964;48.694;21.206;2023-09-19T06:31:09;12.05;;;7.43;;
76194;SDS011;64964;48.694;21.206;2023-09-19T06:33:38;11.77;;;7.87;;
76194;SDS011;64964;48.694;21.206;2023-09-19T06:36:08;10.37;;;7.73;;
76194;SDS011;64964;48.694;21.206;2023-09-19T06:38:33;10.50;;;6.88;;
76194;SDS011;64964;48.694;21.206;2023-09-19T06:41:01;11.27;;;7.97;;
76194;SDS011;64964;48.694;21.206;2023-09-19T06:43:29;8.30;;;6.87;;
76194;SDS011;64964;48.694;21.206;2023-09-19T06:45:56;14.23;;;7.80;;
76194;SDS011;64964;48.694;21.206;2023-09-19T06:48:22;11.18;;;7.30;;
76194;SDS011;64964;48.694;21.206;2023-09-19T06:50:50;11.73;;;8.05;;
76194;SDS011;64964;48.694;21.206;2023-09-19T06:53:15;10.73;;;7.50;;
76194;SDS011;64964;48.694;21.206;2023-09-19T06:55:41;10.47;;;7.27;;
76194;SDS011;64964;48.694;21.206;2023-09-19T06:58:08;8.70;;;7.25;;
76194;SDS011;64964;48.694;21.206;2023-09-19T07:00:35;11.70;;;7.78;;
76194;SDS011;64964;48.694;21.206;2023-09-19T07:03:03;11.20;;;7.53;;
76194;SDS011;64964;48.694;21.206;2023-09-19T07:05:31;10.37;;;7.53;;
76194;SDS011;64964;48.694;21.206;2023-09-19T07:07:57;9.10;;;7.43;;
76194;SDS011;64964;48.694;21.206;2023-09-19T07:10:24;10.07;;;7.22;;
76194;SDS011;64964;48.694;21.206;2023-09-19T07:15:20;10.35;;;7.05;;
76194;SDS011;64964;48.694;21.206;2023-09-19T07:17:48;9.40;;;7.07;;
76194;SDS011;64964;48.694;21.206;2023-09-19T07:20:13;10.53;;;6.97;;
76194;SDS011;64964;48.694;21.206;2023-09-19T07:22:41;11.10;;;6.77;;
76194;SDS011;64964;48.694;21.206;2023-09-19T07:25:06;10.15;;;6.78;;
76194;SDS011;64964;48.694;21.206;2023-09-19T07:27:32;9.23;;;6.77;;
76194;SDS011;64964;48.694;21.206;2023-09-19T07:29:57;10.17;;;6.97;;
76194;SDS011;64964;48.694;21.206;2023-09-19T07:32:23;9.55;;;7.30;;
76194;SDS011;64964;48.694;21.206;2023-09-19T07:34:49;10.27;;;7.00;;
76194;SDS011;64964;48.694;21.206;2023-09-19T07:37:14;8.23;;;6.25;;
76194;SDS011;64964;48.694;21.206;2023-09-19T07:39:40;10.90;;;7.10;;
76194;SDS011;64964;48.694;21.206;2023-09-19T07:42:06;9.93;;;6.65;;
76194;SDS011;64964;48.694;21.206;2023-09-19T07:44:32;12.52;;;7.35;;
76194;SDS011;64964;48.694;21.206;2023-09-19T07:46:57;8.87;;;6.50;;
76194;SDS011;64964;48.694;21.206;2023-09-19T07:49:22;9.93;;;7.27;;
76194;SDS011;64964;48.694;21.206;2023-09-19T07:51:48;10.80;;;7.00;;
76194;SDS011;64964;48.694;21.206;2023-09-19T07:54:13;9.82;;;6.93;;
76194;SDS011;64964;48.694;21.206;2023-09-19T07:56:40;9.57;;;6.53;;
76194;SDS011;64964;48.694;21.206;2023-09-19T07:59:05;8.77;;;7.30;;
76194;SDS011;64964;48.694;21.206;2023-09-19T08:01:31;7.97;;;6.50;;
76194;SDS011;64964;48.694;21.206;2023-09-19T08:03:58;10.95;;;7.65;;
76194;SDS011;64964;48.694;21.206;2023-09-19T08:06:23;8.32;;;7.20;;
76194;SDS011;64964;48.694;21.206;2023-09-19T08:08:52;9.63;;;7.30;;
76194;SDS011;64964;48.694;21.206;2023-09-19T08:11:18;10.05;;;7.57;;
76194;SDS011;64964;48.694;21.206;2023-09-19T08:13:46;11.13;;;7.75;;
76194;SDS011;64964;48.694;21.206;2023-09-19T08:16:13;10.93;;;7.37;;
76194;SDS011;64964;48.694;21.206;2023-09-19T08:18:46;10.60;;;7.65;;
76194;SDS011;64964;48.694;21.206;2023-09-19T08:21:12;11.35;;;7.82;;
76194;SDS011;64964;48.694;21.206;2023-09-19T08:23:39;9.23;;;7.22;;
76194;SDS011;64964;48.694;21.206;2023-09-19T08:26:05;12.48;;;7.43;;
76194;SDS011;64964;48.694;21.206;2023-09-19T08:28:36;9.80;;;7.60;;
76194;SDS011;64964;48.694;21.206;2023-09-19T08:31:02;9.52;;;7.47;;
76194;SDS011;64964;48.694;21.206;2023-09-19T08:33:29;11.30;;;7.97;;
76194;SDS011;64964;48.694;21.206;2023-09-19T08:35:56;10.93;;;7.30;;
76194;SDS011;64964;48.694;21.206;2023-09-19T08:38:22;10.67;;;7.37;;
76194;SDS011;64964;48.694;21.206;2023-09-19T08:40:47;11.73;;;7.63;;
76194;SDS011;64964;48.694;21.206;2023-09-19T08:43:13;9.20;;;7.82;;
76194;SDS011;64964;48.694;21.206;2023-09-19T08:45:38;9.50;;;7.60;;
76194;SDS011;64964;48.694;21.206;2023-09-19T08:48:23;12.30;;;7.43;;
76194;SDS011;64964;48.694;21.206;2023-09-19T08:51:03;9.52;;;7.47;;
76194;SDS011;64964;48.694;21.206;2023-09-19T08:53:42;11.00;;;7.93;;
76194;SDS011;64964;48.694;21.206;2023-09-19T08:56:09;11.40;;;8.55;;
76194;SDS011;64964;48.694;21.206;2023-09-19T08:58:42;11.60;;;7.93;;
76194;SDS011;64964;48.694;21.206;2023-09-19T09:01:20;9.98;;;8.10;;
76194;SDS011;64964;48.694;21.206;2023-09-19T09:03:49;11.13;;;7.53;;
76194;SDS011;64964;48.694;21.206;2023-09-19T09:06:17;11.50;;;7.80;;
76194;SDS011;64964;48.694;21.206;2023-09-19T09:08:45;9.73;;;7.10;;
76194;SDS011;64964;48.694;21.206;2023-09-19T09:11:11;11.23;;;7.40;;
76194;SDS011;64964;48.694;21.206;2023-09-19T09:13:36;10.77;;;7.77;;
76194;SDS011;64964;48.694;21.206;2023-09-19T09:16:02;11.98;;;8.38;;
76194;SDS011;64964;48.694;21.206;2023-09-19T09:18:28;10.70;;;8.20;;
76194;SDS011;64964;48.694;21.206;2023-09-19T09:20:57;12.60;;;8.98;;
76194;SDS011;64964;48.694;21.206;2023-09-19T09:23:22;10.13;;;8.25;;
76194;SDS011;64964;48.694;21.206;2023-09-19T09:25:48;10.33;;;8.17;;
76194;SDS011;64964;48.694;21.206;2023-09-19T09:28:20;13.65;;;8.20;;
76194;SDS011;64964;48.694;21.206;2023-09-19T09:30:47;10.80;;;8.33;;
76194;SDS011;64964;48.694;21.206;2023-09-19T09:33:13;12.38;;;7.75;;
76194;SDS011;64964;48.694;21.206;2023-09-19T09:35:50;13.18;;;7.82;;
76194;SDS011;64964;48.694;21.206;2023-09-19T09:38:27;13.70;;;8.35;;
76194;SDS011;64964;48.694;21.206;2023-09-19T09:40:57;10.57;;;7.33;;
76194;SDS011;64964;48.694;21.206;2023-09-19T09:43:26;11.85;;;7.90;;
76194;SDS011;64964;48.694;21.206;2023-09-19T09:46:26;11.70;;;7.63;;
76194;SDS011;64964;48.694;21.206;2023-09-19T09:48:55;13.13;;;7.55;;
76194;SDS011;64964;48.694;21.206;2023-09-19T09:51:49;10.50;;;7.82;;
76194;SDS011;64964;48.694;21.206;2023-09-19T09:54:25;10.40;;;7.47;;
76194;SDS011;64964;48.694;21.206;2023-09-19T09:57:01;12.52;;;7.60;;
76194;SDS011;64964;48.694;21.206;2023-09-19T10:02:15;13.18;;;8.13;;
76194;SDS011;64964;48.694;21.206;2023-09-19T10:04:49;12.70;;;8.30;;
76194;SDS011;64964;48.694;21.206;2023-09-19T10:07:27;9.73;;;7.63;;
76194;SDS011;64964;48.694;21.206;2023-09-19T10:10:01;14.05;;;7.82;;
76194;SDS011;64964;48.694;21.206;2023-09-19T10:12:46;12.98;;;7.07;;
76194;SDS011;64964;48.694;21.206;2023-09-19T10:15:13;11.90;;;8.40;;
76194;SDS011;64964;48.694;21.206;2023-09-19T10:17:44;11.77;;;7.97;;
76194;SDS011;64964;48.694;21.206;2023-09-19T10:20:12;11.10;;;7.93;;
76194;SDS011;64964;48.694;21.206;2023-09-19T10:22:58;11.95;;;7.80;;
76194;SDS011;64964;48.694;21.206;2023-09-19T10:25:28;11.23;;;8.45;;
76194;SDS011;64964;48.694;21.206;2023-09-19T10:27:54;10.32;;;7.47;;
76194;SDS011;64964;48.694;21.206;2023-09-19T10:30:20;12.70;;;7.93;;
76194;SDS011;64964;48.694;21.206;2023-09-19T10:32:50;11.37;;;7.50;;
76194;SDS011;64964;48.694;21.206;2023-09-19T10:35:24;11.23;;;7.95;;
76194;SDS011;64964;48.694;21.206;2023-09-19T10:37:51;11.40;;;7.53;;
76194;SDS011;64964;48.694;21.206;2023-09-19T10:40:19;12.30;;;8.20;;
76194;SDS011;64964;48.694;21.206;2023-09-19T10:42:46;10.98;;;8.02;;
76194;SDS011;64964;48.694;21.206;2023-09-19T10:45:13;12.23;;;7.53;;
76194;SDS011;64964;48.694;21.206;2023-09-19T10:47:41;12.32;;;8.20;;
76194;SDS011;64964;48.694;21.206;2023-09-19T10:50:08;10.23;;;7.43;;
76194;SDS011;64964;48.694;21.206;2023-09-19T10:52:35;12.30;;;7.00;;
76194;SDS011;64964;48.694;21.206;2023-09-19T10:55:06;10.45;;;7.47;;
76194;SDS011;64964;48.694;21.206;2023-09-19T10:57:32;10.57;;;7.37;;
76194;SDS011;64964;48.694;21.206;2023-09-19T11:00:16;9.18;;;6.60;;
76194;SDS011;64964;48.694;21.206;2023-09-19T11:05:36;9.75;;;7.07;;
76194;SDS011;64964;48.694;21.206;2023-09-19T11:08:05;8.80;;;7.03;;
76194;SDS011;64964;48.694;21.206;2023-09-19T11:10:47;7.83;;;6.37;;
76194;SDS011;64964;48.694;21.206;2023-09-19T11:13:29;9.57;;;7.03;;
76194;SDS011;64964;48.694;21.206;2023-09-19T11:16:03;10.27;;;7.55;;
76194;SDS011;64964;48.694;21.206;2023-09-19T11:26:47;11.77;;;6.80;;
76194;SDS011;64964;48.694;21.206;2023-09-19T11:31:51;9.32;;;6.68;;
76194;SDS011;64964;48.694;21.206;2023-09-19T11:34:39;9.20;;;6.85;;
76194;SDS011;64964;48.694;21.206;2023-09-19T11:39:39;10.63;;;7.30;;
76194;SDS011;64964;48.694;21.206;2023-09-19T11:48:20;11.10;;;7.47;;
76194;SDS011;64964;48.694;21.206;2023-09-19T11:50:50;10.33;;;7.87;;
76194;SDS011;64964;48.694;21.206;2023-09-19T11:53:17;9.95;;;7.22;;
76194;SDS011;64964;48.694;21.206;2023-09-19T11:55:45;11.32;;;7.30;;
76194;SDS011;64964;48.694;21.206;2023-09-19T11:58:10;9.23;;;7.20;;
76194;SDS011;64964;48.694;21.206;2023-09-19T12:00:39;9.23;;;7.33;;
76194;SDS011;64964;48.694;21.206;2023-09-19T12:03:08;11.23;;;7.25;;
76194;SDS011;64964;48.694;21.206;2023-09-19T12:05:35;8.13;;;7.07;;
76194;SDS011;64964;48.694;21.206;2023-09-19T12:08:02;8.43;;;6.97;;
76194;SDS011;64964;48.694;21.206;2023-09-19T12:10:32;8.27;;;7.00;;
76194;SDS011;64964;48.694;21.206;2023-09-19T12:12:58;9.70;;;7.53;;
76194;SDS011;64964;48.694;21.206;2023-09-19T12:15:27;10.30;;;7.30;;
76194;SDS011;64964;48.694;21.206;2023-09-19T12:17:59;10.73;;;7.28;;
76194;SDS011;64964;48.694;21.206;2023-09-19T12:20:24;8.43;;;6.97;;
76194;SDS011;64964;48.694;21.206;2023-09-19T12:22:49;9.60;;;7.73;;
76194;SDS011;64964;48.694;21.206;2023-09-19T12:25:15;6.77;;;5.30;;
76194;SDS011;64964;48.694;21.206;2023-09-19T12:30:10;10.95;;;7.18;;
76194;SDS011;64964;48.694;21.206;2023-09-19T12:32:39;11.18;;;7.88;;
76194;SDS011;64964;48.694;21.206;2023-09-19T12:35:08;10.18;;;7.70;;
76194;SDS011;64964;48.694;21.206;2023-09-19T12:37:36;11.23;;;7.80;;
76194;SDS011;64964;48.694;21.206;2023-09-19T12:40:05;10.13;;;7.93;;
76194;SDS011;64964;48.694;21.206;2023-09-19T12:42:50;11.25;;;7.78;;
76194;SDS011;64964;48.694;21.206;2023-09-19T12:45:18;10.70;;;8.07;;
76194;SDS011;64964;48.694;21.206;2023-09-19T12:51:01;9.30;;;7.67;;
76194;SDS011;64964;48.694;21.206;2023-09-19T12:53:41;10.32;;;7.90;;
76194;SDS011;64964;48.694;21.206;2023-09-19T12:56:09;9.55;;;7.70;;
76194;SDS011;64964;48.694;21.206;2023-09-19T12:58:53;10.15;;;7.10;;
76194;SDS011;64964;48.694;21.206;2023-09-19T13:01:20;10.82;;;7.78;;
76194;SDS011;64964;48.694;21.206;2023-09-19T13:06:54;12.90;;;8.20;;
76194;SDS011;64964;48.694;21.206;2023-09-19T13:09:26;11.77;;;8.35;;
76194;SDS011;64964;48.694;21.206;2023-09-19T13:11:59;8.85;;;7.35;;
76194;SDS011;64964;48.694;21.206;2023-09-19T13:14:27;13.52;;;8.25;;
76194;SDS011;64964;48.694;21.206;2023-09-19T13:19:48;10.65;;;8.18;;
76194;SDS011;64964;48.694;21.206;2023-09-19T13:25:03;12.35;;;8.15;;
76194;SDS011;64964;48.694;21.206;2023-09-19T13:27:31;12.60;;;8.07;;
76194;SDS011;64964;48.694;21.206;2023-09-19T13:29:58;9.30;;;7.37;;
76194;SDS011;64964;48.694;21.206;2023-09-19T13:32:23;13.80;;;8.75;;
76194;SDS011;64964;48.694;21.206;2023-09-19T13:34:49;9.80;;;7.17;;
76194;SDS011;64964;48.694;21.206;2023-09-19T13:37:14;11.87;;;7.57;;
76194;SDS011;64964;48.694;21.206;2023-09-19T13:39:41;9.93;;;7.63;;
76194;SDS011;64964;48.694;21.206;2023-09-19T13:42:12;10.32;;;8.50;;
76194;SDS011;64964;48.694;21.206;2023-09-19T13:44:38;12.38;;;7.32;;
76194;SDS011;64964;48.694;21.206;2023-09-19T13:47:03;10.83;;;8.03;;
76194;SDS011;64964;48.694;21.206;2023-09-19T13:49:34;9.77;;;8.27;;
76194;SDS011;64964;48.694;21.206;2023-09-19T13:52:00;12.63;;;8.25;;
76194;SDS011;64964;48.694;21.206;2023-09-19T13:54:29;8.93;;;6.90;;
76194;SDS011;64964;48.694;21.206;2023-09-19T13:56:54;10.63;;;6.65;;
76194;SDS011;64964;48.694;21.206;2023-09-19T13:59:20;11.33;;;7.47;;
76194;SDS011;64964;48.694;21.206;2023-09-19T14:01:46;10.95;;;7.88;;
76194;SDS011;64964;48.694;21.206;2023-09-19T14:04:11;9.63;;;6.93;;
76194;SDS011;64964;48.694;21.206;2023-09-19T14:06:37;11.55;;;7.45;;
76194;SDS011;64964;48.694;21.206;2023-09-19T14:09:02;8.50;;;7.20;;
76194;SDS011;64964;48.694;21.206;2023-09-19T14:11:28;9.70;;;7.63;;
76194;SDS011;64964;48.694;21.206;2023-09-19T14:13:54;10.80;;;7.60;;
76194;SDS011;64964;48.694;21.206;2023-09-19T14:16:19;14.00;;;8.40;;
76194;SDS011;64964;48.694;21.206;2023-09-19T14:18:47;12.75;;;8.25;;
76194;SDS011;64964;48.694;21.206;2023-09-19T14:21:12;10.67;;;8.17;;
76194;SDS011;64964;48.694;21.206;2023-09-19T14:23:39;11.80;;;8.40;;
76194;SDS011;64964;48.694;21.206;2023-09-19T14:26:06;11.98;;;8.93;;
76194;SDS011;64964;48.694;21.206;2023-09-19T14:28:32;13.50;;;8.90;;
76194;SDS011;64964;48.694;21.206;2023-09-19T14:31:03;9.73;;;8.02;;
76194;SDS011;64964;48.694;21.206;2023-09-19T14:33:32;12.25;;;8.52;;
76194;SDS011;64964;48.694;21.206;2023-09-19T14:35:57;13.30;;;8.40;;
76194;SDS011;64964;48.694;21.206;2023-09-19T14:38:23;11.23;;;8.17;;
76194;SDS011;64964;48.694;21.206;2023-09-19T14:40:48;14.37;;;8.33;;
76194;SDS011;64964;48.694;21.206;2023-09-19T14:43:15;9.98;;;7.90;;
76194;SDS011;64964;48.694;21.206;2023-09-19T14:45:40;11.65;;;7.85;;
76194;SDS011;64964;48.694;21.206;2023-09-19T14:48:06;12.07;;;8.47;;
76194;SDS011;64964;48.694;21.206;2023-09-19T14:50:32;8.82;;;7.65;;
76194;SDS011;64964;48.694;21.206;2023-09-19T14:52:58;11.33;;;8.60;;
76194;SDS011;64964;48.694;21.206;2023-09-19T14:55:26;10.40;;;7.50;;
76194;SDS011;64964;48.694;21.206;2023-09-19T14:57:54;9.65;;;8.00;;
76194;SDS011;64964;48.694;21.206;2023-09-19T15:00:21;10.40;;;7.95;;
76194;SDS011;64964;48.694;21.206;2023-09-19T15:02:48;12.73;;;8.37;;
76194;SDS011;64964;48.694;21.206;2023-09-19T15:05:15;9.18;;;7.32;;
76194;SDS011;64964;48.694;21.206;2023-09-19T15:07:41;9.38;;;7.72;;
76194;SDS011;64964;48.694;21.206;2023-09-19T15:10:06;9.97;;;8.27;;
76194;SDS011;64964;48.694;21.206;2023-09-19T15:12:34;11.48;;;7.85;;
76194;SDS011;64964;48.694;21.206;2023-09-19T15:15:02;9.02;;;7.57;;
76194;SDS011;64964;48.694;21.206;2023-09-19T15:17:28;12.07;;;8.50;;
76194;SDS011;64964;48.694;21.206;2023-09-19T15:19:53;10.90;;;8.83;;
76194;SDS011;64964;48.694;21.206;2023-09-19T15:22:18;12.33;;;8.57;;
76194;SDS011;64964;48.694;21.206;2023-09-19T15:24:45;11.25;;;8.75;;